This is the latest recevied weather packets stored in our database for station/object IU7URP-17. If no packets are shown the sender has not sent any weather packets the latest 10 day(s).
| Time | Temp. | Humidity | Pressure | Rain* | Wind** | Luminosity | Snow |
|---|---|---|---|---|---|---|---|
| 1788669342 | 21.67° C | 72% | 1019.8 hPa | - | - | - | - |
| 1788666931 | 21.11° C | 74% | 1019.5 hPa | - | - | - | - |
| 1788665727 | 21.11° C | 74% | 1019.6 hPa | - | - | - | - |
| 1788664522 | 21.11° C | 76% | 1019.5 hPa | - | - | - | - |
| 1788663317 | 21.11° C | 76% | 1019.6 hPa | - | - | - | - |
| 1788660909 | 21.67° C | 74% | 1019.5 hPa | - | - | - | - |
| 1788659705 | 21.67° C | 76% | 1019.5 hPa | - | - | - | - |
| 1788658502 | 21.67° C | 76% | 1019.6 hPa | - | - | - | - |
| 1788657298 | 21.11° C | 77% | 1019.6 hPa | - | - | - | - |
| 1788656094 | 20.56° C | 77% | 1019.4 hPa | - | - | - | - |
| 1788654890 | 22.78° C | 73% | 1019.3 hPa | - | - | - | - |
| 1788653686 | 23.33° C | 72% | 1019.4 hPa | - | - | - | - |
| 1788652481 | 23.89° C | 70% | 1019.3 hPa | - | - | - | - |
| 1788651277 | 23.89° C | 70% | 1019.5 hPa | - | - | - | - |
| 1788650074 | 23.89° C | 69% | 1019.6 hPa | - | - | - | - |
| 1788648870 | 23.89° C | 68% | 1019.6 hPa | - | - | - | - |
| 1788647666 | 23.33° C | 68% | 1019.7 hPa | - | - | - | - |
| 1788646462 | 23.89° C | 66% | 1019.7 hPa | - | - | - | - |
| 1788645258 | 24.44° C | 66% | 1019.5 hPa | - | - | - | - |
| 1788644054 | 24.44° C | 65% | 1019.3 hPa | - | - | - | - |
| 1788642850 | 24.44° C | 65% | 1019.5 hPa | - | - | - | - |
| 1788641646 | 24.44° C | 64% | 1019.4 hPa | - | - | - | - |
| 1788640442 | 25° C | 62% | 1019.3 hPa | - | - | - | - |
| 1788639238 | 25° C | 58% | 1019.3 hPa | - | - | - | - |
| 1788638034 | 25.56° C | 56% | 1019.4 hPa | - | - | - | - |
* Rain since midnight (hover to see other rain measurements)
** Current wind speed in m/s (hover to see current wind gust speed)